sensor_id;sensor_type;location;lat;lon;timestamp;temperature;humidity
20866;DHT22;10593;48.398;10.698;2023-05-29T00:00:35;19.00;41.50
20866;DHT22;10593;48.398;10.698;2023-05-29T00:03:01;19.00;41.50
20866;DHT22;10593;48.398;10.698;2023-05-29T00:05:27;19.00;41.50
20866;DHT22;10593;48.398;10.698;2023-05-29T00:07:52;18.90;41.20
20866;DHT22;10593;48.398;10.698;2023-05-29T00:10:18;18.90;41.00
20866;DHT22;10593;48.398;10.698;2023-05-29T00:12:44;18.80;40.70
20866;DHT22;10593;48.398;10.698;2023-05-29T00:15:10;18.80;40.70
20866;DHT22;10593;48.398;10.698;2023-05-29T00:17:36;18.80;40.90
20866;DHT22;10593;48.398;10.698;2023-05-29T00:20:02;18.80;40.90
20866;DHT22;10593;48.398;10.698;2023-05-29T00:22:32;18.70;40.70
20866;DHT22;10593;48.398;10.698;2023-05-29T00:24:58;18.70;40.70
20866;DHT22;10593;48.398;10.698;2023-05-29T00:27:23;18.70;41.00
20866;DHT22;10593;48.398;10.698;2023-05-29T00:29:49;18.70;40.80
20866;DHT22;10593;48.398;10.698;2023-05-29T00:32:15;18.60;40.60
20866;DHT22;10593;48.398;10.698;2023-05-29T00:34:41;18.60;40.60
20866;DHT22;10593;48.398;10.698;2023-05-29T00:37:06;18.60;40.60
20866;DHT22;10593;48.398;10.698;2023-05-29T00:39:32;18.50;40.70
20866;DHT22;10593;48.398;10.698;2023-05-29T00:41:58;18.50;41.00
20866;DHT22;10593;48.398;10.698;2023-05-29T00:44:23;18.50;41.10
20866;DHT22;10593;48.398;10.698;2023-05-29T00:46:51;18.40;41.00
20866;DHT22;10593;48.398;10.698;2023-05-29T00:49:19;18.30;40.90
20866;DHT22;10593;48.398;10.698;2023-05-29T00:51:46;18.40;41.00
20866;DHT22;10593;48.398;10.698;2023-05-29T00:54:20;18.30;41.30
20866;DHT22;10593;48.398;10.698;2023-05-29T00:56:48;18.30;41.40
20866;DHT22;10593;48.398;10.698;2023-05-29T00:59:15;18.20;41.60
20866;DHT22;10593;48.398;10.698;2023-05-29T01:01:41;18.20;41.70
20866;DHT22;10593;48.398;10.698;2023-05-29T01:04:10;18.20;41.70
20866;DHT22;10593;48.398;10.698;2023-05-29T01:06:38;18.20;41.70
20866;DHT22;10593;48.398;10.698;2023-05-29T01:09:05;18.20;41.70
20866;DHT22;10593;48.398;10.698;2023-05-29T01:11:32;18.20;41.80
20866;DHT22;10593;48.398;10.698;2023-05-29T01:14:09;18.20;41.70
20866;DHT22;10593;48.398;10.698;2023-05-29T01:16:53;18.10;41.60
20866;DHT22;10593;48.398;10.698;2023-05-29T01:28:21;17.90;41.70
20866;DHT22;10593;48.398;10.698;2023-05-29T01:30:50;17.90;41.50
20866;DHT22;10593;48.398;10.698;2023-05-29T01:33:17;17.90;41.60
20866;DHT22;10593;48.398;10.698;2023-05-29T01:35:43;17.80;41.50
20866;DHT22;10593;48.398;10.698;2023-05-29T01:38:08;17.80;41.60
20866;DHT22;10593;48.398;10.698;2023-05-29T01:40:34;17.80;41.60
20866;DHT22;10593;48.398;10.698;2023-05-29T01:43:01;17.70;41.60
20866;DHT22;10593;48.398;10.698;2023-05-29T01:45:27;17.70;41.60
20866;DHT22;10593;48.398;10.698;2023-05-29T01:47:54;17.60;41.70
20866;DHT22;10593;48.398;10.698;2023-05-29T01:50:22;17.60;41.70
20866;DHT22;10593;48.398;10.698;2023-05-29T01:52:49;17.60;41.80
20866;DHT22;10593;48.398;10.698;2023-05-29T01:55:15;17.50;41.80
20866;DHT22;10593;48.398;10.698;2023-05-29T01:57:41;17.50;41.80
20866;DHT22;10593;48.398;10.698;2023-05-29T02:00:08;17.50;41.90
20866;DHT22;10593;48.398;10.698;2023-05-29T02:02:38;17.50;42.00
20866;DHT22;10593;48.398;10.698;2023-05-29T02:05:05;17.40;41.90
20866;DHT22;10593;48.398;10.698;2023-05-29T02:07:32;17.40;41.90
20866;DHT22;10593;48.398;10.698;2023-05-29T02:09:58;17.40;42.00
20866;DHT22;10593;48.398;10.698;2023-05-29T02:12:23;17.30;41.90
20866;DHT22;10593;48.398;10.698;2023-05-29T02:14:49;17.30;42.00
20866;DHT22;10593;48.398;10.698;2023-05-29T02:17:14;17.30;42.00
20866;DHT22;10593;48.398;10.698;2023-05-29T02:19:40;17.30;42.00
20866;DHT22;10593;48.398;10.698;2023-05-29T02:22:07;17.30;41.90
20866;DHT22;10593;48.398;10.698;2023-05-29T02:24:33;17.20;41.90
20866;DHT22;10593;48.398;10.698;2023-05-29T02:26:58;17.20;41.90
20866;DHT22;10593;48.398;10.698;2023-05-29T02:29:24;17.20;42.20
20866;DHT22;10593;48.398;10.698;2023-05-29T02:31:50;17.10;42.20
20866;DHT22;10593;48.398;10.698;2023-05-29T02:34:16;17.10;42.30
20866;DHT22;10593;48.398;10.698;2023-05-29T02:36:41;17.10;42.40
20866;DHT22;10593;48.398;10.698;2023-05-29T02:39:07;17.00;42.40
20866;DHT22;10593;48.398;10.698;2023-05-29T02:41:33;17.00;42.50
20866;DHT22;10593;48.398;10.698;2023-05-29T02:43:58;17.00;42.40
20866;DHT22;10593;48.398;10.698;2023-05-29T02:46:24;17.00;42.40
20866;DHT22;10593;48.398;10.698;2023-05-29T02:48:49;17.00;42.30
20866;DHT22;10593;48.398;10.698;2023-05-29T02:51:15;16.90;42.20
20866;DHT22;10593;48.398;10.698;2023-05-29T02:53:41;16.90;42.30
20866;DHT22;10593;48.398;10.698;2023-05-29T02:56:07;16.90;42.30
20866;DHT22;10593;48.398;10.698;2023-05-29T02:58:34;16.80;42.20
20866;DHT22;10593;48.398;10.698;2023-05-29T03:01:01;16.80;42.30
20866;DHT22;10593;48.398;10.698;2023-05-29T03:03:29;16.80;42.40
20866;DHT22;10593;48.398;10.698;2023-05-29T03:05:55;16.70;42.40
20866;DHT22;10593;48.398;10.698;2023-05-29T03:08:21;16.70;42.30
20866;DHT22;10593;48.398;10.698;2023-05-29T03:10:46;16.70;42.40
20866;DHT22;10593;48.398;10.698;2023-05-29T03:13:13;16.70;42.40
20866;DHT22;10593;48.398;10.698;2023-05-29T03:15:38;16.70;42.50
20866;DHT22;10593;48.398;10.698;2023-05-29T03:18:04;16.70;42.60
20866;DHT22;10593;48.398;10.698;2023-05-29T03:20:30;16.60;42.50
20866;DHT22;10593;48.398;10.698;2023-05-29T03:22:55;16.60;42.60
20866;DHT22;10593;48.398;10.698;2023-05-29T03:25:22;16.60;42.60
20866;DHT22;10593;48.398;10.698;2023-05-29T03:27:48;16.60;42.50
20866;DHT22;10593;48.398;10.698;2023-05-29T03:30:13;16.50;42.50
20866;DHT22;10593;48.398;10.698;2023-05-29T03:32:39;16.50;42.50
20866;DHT22;10593;48.398;10.698;2023-05-29T03:35:06;16.50;42.60
20866;DHT22;10593;48.398;10.698;2023-05-29T03:37:31;16.40;42.60
20866;DHT22;10593;48.398;10.698;2023-05-29T03:39:57;16.40;42.70
20866;DHT22;10593;48.398;10.698;2023-05-29T03:42:23;16.40;42.80
20866;DHT22;10593;48.398;10.698;2023-05-29T03:44:48;16.40;42.80
20866;DHT22;10593;48.398;10.698;2023-05-29T03:47:14;16.30;42.70
20866;DHT22;10593;48.398;10.698;2023-05-29T03:49:40;16.30;42.80
20866;DHT22;10593;48.398;10.698;2023-05-29T03:52:05;16.30;42.80
20866;DHT22;10593;48.398;10.698;2023-05-29T03:54:32;16.30;42.80
20866;DHT22;10593;48.398;10.698;2023-05-29T03:56:58;16.30;42.90
20866;DHT22;10593;48.398;10.698;2023-05-29T03:59:23;16.30;43.00
20866;DHT22;10593;48.398;10.698;2023-05-29T04:01:49;16.20;43.00
20866;DHT22;10593;48.398;10.698;2023-05-29T04:04:15;16.20;43.10
20866;DHT22;10593;48.398;10.698;2023-05-29T04:06:40;16.20;43.30
20866;DHT22;10593;48.398;10.698;2023-05-29T04:09:06;16.20;43.40
20866;DHT22;10593;48.398;10.698;2023-05-29T04:11:33;16.20;43.50
20866;DHT22;10593;48.398;10.698;2023-05-29T04:14:00;16.20;43.60
20866;DHT22;10593;48.398;10.698;2023-05-29T04:16:27;16.20;43.70
20866;DHT22;10593;48.398;10.698;2023-05-29T04:18:54;16.10;43.70
20866;DHT22;10593;48.398;10.698;2023-05-29T04:21:20;16.20;43.80
20866;DHT22;10593;48.398;10.698;2023-05-29T04:23:46;16.20;43.90
20866;DHT22;10593;48.398;10.698;2023-05-29T04:26:12;16.20;43.90
20866;DHT22;10593;48.398;10.698;2023-05-29T04:28:38;16.20;43.90
20866;DHT22;10593;48.398;10.698;2023-05-29T04:31:04;16.20;44.00
20866;DHT22;10593;48.398;10.698;2023-05-29T04:33:33;16.20;44.00
20866;DHT22;10593;48.398;10.698;2023-05-29T04:36:02;16.30;44.10
20866;DHT22;10593;48.398;10.698;2023-05-29T04:38:29;16.30;44.10
20866;DHT22;10593;48.398;10.698;2023-05-29T04:40:56;16.30;44.10
20866;DHT22;10593;48.398;10.698;2023-05-29T04:43:25;16.40;44.30
20866;DHT22;10593;48.398;10.698;2023-05-29T04:45:53;16.40;44.40
20866;DHT22;10593;48.398;10.698;2023-05-29T04:48:19;16.40;45.10
20866;DHT22;10593;48.398;10.698;2023-05-29T04:50:45;16.50;44.80
20866;DHT22;10593;48.398;10.698;2023-05-29T04:53:10;16.50;44.80
20866;DHT22;10593;48.398;10.698;2023-05-29T04:55:36;16.60;44.90
20866;DHT22;10593;48.398;10.698;2023-05-29T04:58:02;16.60;45.40
20866;DHT22;10593;48.398;10.698;2023-05-29T05:00:28;16.60;45.00
20866;DHT22;10593;48.398;10.698;2023-05-29T05:02:54;16.70;45.10
20866;DHT22;10593;48.398;10.698;2023-05-29T05:05:20;16.70;45.10
20866;DHT22;10593;48.398;10.698;2023-05-29T05:07:46;16.80;45.30
20866;DHT22;10593;48.398;10.698;2023-05-29T05:10:12;16.90;45.40
20866;DHT22;10593;48.398;10.698;2023-05-29T05:12:38;16.90;45.50
20866;DHT22;10593;48.398;10.698;2023-05-29T05:15:04;17.00;45.50
20866;DHT22;10593;48.398;10.698;2023-05-29T05:17:31;17.10;45.70
20866;DHT22;10593;48.398;10.698;2023-05-29T05:19:56;17.10;45.60
20866;DHT22;10593;48.398;10.698;2023-05-29T05:22:22;17.20;45.60
20866;DHT22;10593;48.398;10.698;2023-05-29T05:24:48;17.30;45.70
20866;DHT22;10593;48.398;10.698;2023-05-29T05:27:13;17.40;45.70
20866;DHT22;10593;48.398;10.698;2023-05-29T05:29:39;17.40;45.50
20866;DHT22;10593;48.398;10.698;2023-05-29T05:32:05;17.50;45.50
20866;DHT22;10593;48.398;10.698;2023-05-29T05:34:31;17.60;45.80
20866;DHT22;10593;48.398;10.698;2023-05-29T05:36:57;17.70;45.90
20866;DHT22;10593;48.398;10.698;2023-05-29T05:39:23;17.70;46.70
20866;DHT22;10593;48.398;10.698;2023-05-29T05:41:48;17.80;46.40
20866;DHT22;10593;48.398;10.698;2023-05-29T05:44:14;17.90;46.50
20866;DHT22;10593;48.398;10.698;2023-05-29T05:46:40;18.00;46.50
20866;DHT22;10593;48.398;10.698;2023-05-29T05:49:05;18.10;46.50
20866;DHT22;10593;48.398;10.698;2023-05-29T05:51:31;18.20;46.70
20866;DHT22;10593;48.398;10.698;2023-05-29T05:53:57;18.20;47.20
20866;DHT22;10593;48.398;10.698;2023-05-29T05:56:22;18.30;46.60
20866;DHT22;10593;48.398;10.698;2023-05-29T05:58:48;18.40;46.50
20866;DHT22;10593;48.398;10.698;2023-05-29T06:01:15;18.50;46.60
20866;DHT22;10593;48.398;10.698;2023-05-29T06:03:41;18.60;46.60
20866;DHT22;10593;48.398;10.698;2023-05-29T06:06:06;18.60;46.60
20866;DHT22;10593;48.398;10.698;2023-05-29T06:08:34;18.70;46.60
20866;DHT22;10593;48.398;10.698;2023-05-29T06:10:59;18.80;46.70
20866;DHT22;10593;48.398;10.698;2023-05-29T06:13:25;18.90;46.80
20866;DHT22;10593;48.398;10.698;2023-05-29T06:15:51;18.90;46.80
20866;DHT22;10593;48.398;10.698;2023-05-29T06:18:17;19.00;46.80
20866;DHT22;10593;48.398;10.698;2023-05-29T06:20:42;19.10;46.30
20866;DHT22;10593;48.398;10.698;2023-05-29T06:23:08;19.10;46.10
20866;DHT22;10593;48.398;10.698;2023-05-29T06:25:34;19.20;45.70
20866;DHT22;10593;48.398;10.698;2023-05-29T06:28:00;19.30;45.70
20866;DHT22;10593;48.398;10.698;2023-05-29T06:30:27;19.30;45.60
20866;DHT22;10593;48.398;10.698;2023-05-29T06:32:53;19.40;45.60
20866;DHT22;10593;48.398;10.698;2023-05-29T06:35:19;19.50;45.90
20866;DHT22;10593;48.398;10.698;2023-05-29T06:37:45;19.50;45.70
20866;DHT22;10593;48.398;10.698;2023-05-29T06:40:12;19.60;46.00
20866;DHT22;10593;48.398;10.698;2023-05-29T06:42:38;19.70;45.50
20866;DHT22;10593;48.398;10.698;2023-05-29T06:45:04;19.70;45.60
20866;DHT22;10593;48.398;10.698;2023-05-29T06:47:31;19.80;45.70
20866;DHT22;10593;48.398;10.698;2023-05-29T06:49:56;19.80;45.50
20866;DHT22;10593;48.398;10.698;2023-05-29T06:52:22;19.90;45.60
20866;DHT22;10593;48.398;10.698;2023-05-29T06:54:48;19.90;45.80
20866;DHT22;10593;48.398;10.698;2023-05-29T06:57:13;20.00;45.60
20866;DHT22;10593;48.398;10.698;2023-05-29T06:59:39;20.10;45.30
20866;DHT22;10593;48.398;10.698;2023-05-29T07:02:05;20.10;45.10
20866;DHT22;10593;48.398;10.698;2023-05-29T07:04:31;20.20;44.80
20866;DHT22;10593;48.398;10.698;2023-05-29T07:06:56;20.20;44.60
20866;DHT22;10593;48.398;10.698;2023-05-29T07:09:22;20.30;44.60
20866;DHT22;10593;48.398;10.698;2023-05-29T07:11:48;20.30;44.80
20866;DHT22;10593;48.398;10.698;2023-05-29T07:14:13;20.40;44.90
20866;DHT22;10593;48.398;10.698;2023-05-29T07:16:39;20.40;44.80
20866;DHT22;10593;48.398;10.698;2023-05-29T07:19:05;20.50;45.10
20866;DHT22;10593;48.398;10.698;2023-05-29T07:21:31;20.50;44.70
20866;DHT22;10593;48.398;10.698;2023-05-29T07:23:58;20.60;44.60
20866;DHT22;10593;48.398;10.698;2023-05-29T07:26:24;20.70;44.40
20866;DHT22;10593;48.398;10.698;2023-05-29T07:28:50;20.70;44.90
20866;DHT22;10593;48.398;10.698;2023-05-29T07:31:16;20.80;45.10
20866;DHT22;10593;48.398;10.698;2023-05-29T07:33:42;20.80;44.80
20866;DHT22;10593;48.398;10.698;2023-05-29T07:36:07;20.80;44.80
20866;DHT22;10593;48.398;10.698;2023-05-29T07:38:33;20.90;44.70
20866;DHT22;10593;48.398;10.698;2023-05-29T07:40:59;20.90;44.50
20866;DHT22;10593;48.398;10.698;2023-05-29T07:43:25;20.90;44.60
20866;DHT22;10593;48.398;10.698;2023-05-29T07:45:50;21.00;44.70
20866;DHT22;10593;48.398;10.698;2023-05-29T07:48:16;21.10;44.90
20866;DHT22;10593;48.398;10.698;2023-05-29T07:50:41;21.10;45.00
20866;DHT22;10593;48.398;10.698;2023-05-29T07:53:07;21.20;44.80
20866;DHT22;10593;48.398;10.698;2023-05-29T07:55:34;21.20;45.20
20866;DHT22;10593;48.398;10.698;2023-05-29T07:58:00;21.20;44.40
20866;DHT22;10593;48.398;10.698;2023-05-29T08:00:27;21.30;44.30
20866;DHT22;10593;48.398;10.698;2023-05-29T08:02:53;21.30;44.00
20866;DHT22;10593;48.398;10.698;2023-05-29T08:05:19;21.40;44.60
20866;DHT22;10593;48.398;10.698;2023-05-29T08:07:45;21.40;44.10
20866;DHT22;10593;48.398;10.698;2023-05-29T08:10:12;21.50;44.00
20866;DHT22;10593;48.398;10.698;2023-05-29T08:12:37;21.50;43.60
20866;DHT22;10593;48.398;10.698;2023-05-29T08:15:03;21.60;43.50
20866;DHT22;10593;48.398;10.698;2023-05-29T08:17:29;21.60;43.40
20866;DHT22;10593;48.398;10.698;2023-05-29T08:19:55;21.60;42.80
20866;DHT22;10593;48.398;10.698;2023-05-29T08:22:28;21.60;42.40
20866;DHT22;10593;48.398;10.698;2023-05-29T08:24:55;21.70;42.50
20866;DHT22;10593;48.398;10.698;2023-05-29T08:27:21;21.70;42.80
20866;DHT22;10593;48.398;10.698;2023-05-29T08:29:46;21.70;42.90
20866;DHT22;10593;48.398;10.698;2023-05-29T08:32:12;21.70;42.60
20866;DHT22;10593;48.398;10.698;2023-05-29T08:34:37;21.80;42.50
20866;DHT22;10593;48.398;10.698;2023-05-29T08:37:03;21.80;42.20
20866;DHT22;10593;48.398;10.698;2023-05-29T08:39:30;21.80;42.30
20866;DHT22;10593;48.398;10.698;2023-05-29T08:42:01;21.90;42.50
20866;DHT22;10593;48.398;10.698;2023-05-29T08:44:33;21.90;41.80
20866;DHT22;10593;48.398;10.698;2023-05-29T08:47:02;21.90;41.80
20866;DHT22;10593;48.398;10.698;2023-05-29T08:49:40;21.90;41.50
20866;DHT22;10593;48.398;10.698;2023-05-29T08:52:14;22.00;41.40
20866;DHT22;10593;48.398;10.698;2023-05-29T08:54:41;22.00;42.00
20866;DHT22;10593;48.398;10.698;2023-05-29T08:57:08;22.00;42.30
20866;DHT22;10593;48.398;10.698;2023-05-29T08:59:37;22.10;42.00
20866;DHT22;10593;48.398;10.698;2023-05-29T09:02:05;22.20;42.00
20866;DHT22;10593;48.398;10.698;2023-05-29T09:04:32;22.20;42.00
20866;DHT22;10593;48.398;10.698;2023-05-29T09:06:58;22.30;42.00
20866;DHT22;10593;48.398;10.698;2023-05-29T09:09:27;22.30;42.20
20866;DHT22;10593;48.398;10.698;2023-05-29T09:11:53;22.30;41.70
20866;DHT22;10593;48.398;10.698;2023-05-29T09:14:52;22.40;42.00
20866;DHT22;10593;48.398;10.698;2023-05-29T09:17:17;22.40;41.30
20866;DHT22;10593;48.398;10.698;2023-05-29T09:19:43;22.50;41.60
20866;DHT22;10593;48.398;10.698;2023-05-29T09:22:12;22.50;41.10
20866;DHT22;10593;48.398;10.698;2023-05-29T09:24:48;22.60;41.90
20866;DHT22;10593;48.398;10.698;2023-05-29T09:27:14;22.60;41.40
20866;DHT22;10593;48.398;10.698;2023-05-29T09:29:42;22.60;41.30
20866;DHT22;10593;48.398;10.698;2023-05-29T09:32:09;22.70;41.30
20866;DHT22;10593;48.398;10.698;2023-05-29T09:34:37;22.70;41.30
20866;DHT22;10593;48.398;10.698;2023-05-29T09:37:07;22.70;41.30
20866;DHT22;10593;48.398;10.698;2023-05-29T09:39:44;22.80;41.10
20866;DHT22;10593;48.398;10.698;2023-05-29T09:42:10;22.80;40.90
20866;DHT22;10593;48.398;10.698;2023-05-29T09:44:37;22.90;40.70
20866;DHT22;10593;48.398;10.698;2023-05-29T09:47:03;22.90;40.30
20866;DHT22;10593;48.398;10.698;2023-05-29T09:49:31;22.90;41.10
20866;DHT22;10593;48.398;10.698;2023-05-29T09:51:58;22.90;39.80
20866;DHT22;10593;48.398;10.698;2023-05-29T09:54:27;23.00;40.10
20866;DHT22;10593;48.398;10.698;2023-05-29T09:56:55;23.00;40.30
20866;DHT22;10593;48.398;10.698;2023-05-29T09:59:24;23.00;39.00
20866;DHT22;10593;48.398;10.698;2023-05-29T10:02:04;23.10;39.60
20866;DHT22;10593;48.398;10.698;2023-05-29T10:04:32;23.10;40.20
20866;DHT22;10593;48.398;10.698;2023-05-29T10:07:05;23.10;39.70
20866;DHT22;10593;48.398;10.698;2023-05-29T10:09:59;23.10;40.00
20866;DHT22;10593;48.398;10.698;2023-05-29T10:12:29;23.10;39.60
20866;DHT22;10593;48.398;10.698;2023-05-29T10:14:59;23.20;38.50
20866;DHT22;10593;48.398;10.698;2023-05-29T10:17:28;23.20;38.10
20866;DHT22;10593;48.398;10.698;2023-05-29T10:19:58;23.20;38.10
20866;DHT22;10593;48.398;10.698;2023-05-29T10:22:27;23.20;38.30
20866;DHT22;10593;48.398;10.698;2023-05-29T10:24:56;23.20;38.40
20866;DHT22;10593;48.398;10.698;2023-05-29T10:27:23;23.30;37.80
20866;DHT22;10593;48.398;10.698;2023-05-29T10:30:20;23.30;36.80
20866;DHT22;10593;48.398;10.698;2023-05-29T10:33:22;23.30;36.70
20866;DHT22;10593;48.398;10.698;2023-05-29T10:36:20;23.30;38.10
20866;DHT22;10593;48.398;10.698;2023-05-29T10:38:50;23.40;39.00
20866;DHT22;10593;48.398;10.698;2023-05-29T10:43:53;23.40;37.90
20866;DHT22;10593;48.398;10.698;2023-05-29T10:46:20;23.50;39.00
20866;DHT22;10593;48.398;10.698;2023-05-29T10:48:49;23.50;37.50
20866;DHT22;10593;48.398;10.698;2023-05-29T10:51:26;23.50;37.80
20866;DHT22;10593;48.398;10.698;2023-05-29T10:53:53;23.50;37.60
20866;DHT22;10593;48.398;10.698;2023-05-29T10:56:24;23.50;37.50
20866;DHT22;10593;48.398;10.698;2023-05-29T10:58:55;23.50;37.20
20866;DHT22;10593;48.398;10.698;2023-05-29T11:01:24;23.50;37.10
20866;DHT22;10593;48.398;10.698;2023-05-29T11:06:50;23.50;36.20
20866;DHT22;10593;48.398;10.698;2023-05-29T11:09:36;23.60;36.40
20866;DHT22;10593;48.398;10.698;2023-05-29T11:12:21;23.60;35.30
20866;DHT22;10593;48.398;10.698;2023-05-29T11:15:10;23.60;35.70
20866;DHT22;10593;48.398;10.698;2023-05-29T11:20:09;23.60;35.70
20866;DHT22;10593;48.398;10.698;2023-05-29T11:23:00;23.60;36.10
20866;DHT22;10593;48.398;10.698;2023-05-29T11:25:37;23.70;36.00
20866;DHT22;10593;48.398;10.698;2023-05-29T11:28:04;23.70;36.40
20866;DHT22;10593;48.398;10.698;2023-05-29T11:30:45;23.70;36.00
20866;DHT22;10593;48.398;10.698;2023-05-29T11:33:26;23.70;36.00
20866;DHT22;10593;48.398;10.698;2023-05-29T11:35:58;23.70;35.10
20866;DHT22;10593;48.398;10.698;2023-05-29T11:38:25;23.80;34.50
20866;DHT22;10593;48.398;10.698;2023-05-29T11:40:53;23.80;35.30
20866;DHT22;10593;48.398;10.698;2023-05-29T11:43:20;23.80;35.90
20866;DHT22;10593;48.398;10.698;2023-05-29T11:45:47;23.80;36.00
20866;DHT22;10593;48.398;10.698;2023-05-29T11:48:12;23.80;36.10
20866;DHT22;10593;48.398;10.698;2023-05-29T11:50:38;23.90;34.80
20866;DHT22;10593;48.398;10.698;2023-05-29T11:53:06;23.90;34.80
20866;DHT22;10593;48.398;10.698;2023-05-29T11:55:33;23.90;34.40
20866;DHT22;10593;48.398;10.698;2023-05-29T11:58:00;23.90;33.70
20866;DHT22;10593;48.398;10.698;2023-05-29T12:00:32;23.90;33.00
20866;DHT22;10593;48.398;10.698;2023-05-29T12:03:00;24.00;34.20
20866;DHT22;10593;48.398;10.698;2023-05-29T12:05:43;24.00;33.40
20866;DHT22;10593;48.398;10.698;2023-05-29T12:08:11;24.00;33.80
20866;DHT22;10593;48.398;10.698;2023-05-29T12:10:36;24.00;33.80
20866;DHT22;10593;48.398;10.698;2023-05-29T12:13:02;24.00;34.30
20866;DHT22;10593;48.398;10.698;2023-05-29T12:15:28;24.10;34.50
20866;DHT22;10593;48.398;10.698;2023-05-29T12:17:55;24.10;33.40
20866;DHT22;10593;48.398;10.698;2023-05-29T12:20:25;24.10;33.50
20866;DHT22;10593;48.398;10.698;2023-05-29T12:22:59;24.20;33.60
20866;DHT22;10593;48.398;10.698;2023-05-29T12:25:26;24.10;33.90
20866;DHT22;10593;48.398;10.698;2023-05-29T12:27:55;24.20;33.60
20866;DHT22;10593;48.398;10.698;2023-05-29T12:30:23;24.20;33.80
20866;DHT22;10593;48.398;10.698;2023-05-29T12:32:51;24.20;33.30
20866;DHT22;10593;48.398;10.698;2023-05-29T12:35:19;24.20;33.00
20866;DHT22;10593;48.398;10.698;2023-05-29T12:38:00;24.20;33.20
20866;DHT22;10593;48.398;10.698;2023-05-29T12:40:27;24.30;33.50
20866;DHT22;10593;48.398;10.698;2023-05-29T12:43:00;24.30;33.10
20866;DHT22;10593;48.398;10.698;2023-05-29T12:45:29;24.30;32.20
20866;DHT22;10593;48.398;10.698;2023-05-29T12:47:57;24.30;32.50
20866;DHT22;10593;48.398;10.698;2023-05-29T12:50:35;24.30;32.90
20866;DHT22;10593;48.398;10.698;2023-05-29T12:55:36;24.40;33.10
20866;DHT22;10593;48.398;10.698;2023-05-29T12:58:04;24.40;32.60
20866;DHT22;10593;48.398;10.698;2023-05-29T13:00:31;24.40;32.70
20866;DHT22;10593;48.398;10.698;2023-05-29T13:02:58;24.40;32.60
20866;DHT22;10593;48.398;10.698;2023-05-29T13:05:24;24.40;32.40
20866;DHT22;10593;48.398;10.698;2023-05-29T13:07:50;24.40;31.40
20866;DHT22;10593;48.398;10.698;2023-05-29T13:10:18;24.40;32.20
20866;DHT22;10593;48.398;10.698;2023-05-29T13:12:45;24.50;32.10
20866;DHT22;10593;48.398;10.698;2023-05-29T13:15:13;24.50;33.10
20866;DHT22;10593;48.398;10.698;2023-05-29T13:17:39;24.50;32.20
20866;DHT22;10593;48.398;10.698;2023-05-29T13:20:08;24.50;32.80
20866;DHT22;10593;48.398;10.698;2023-05-29T13:22:38;24.60;33.40
20866;DHT22;10593;48.398;10.698;2023-05-29T13:25:05;24.60;32.60
20866;DHT22;10593;48.398;10.698;2023-05-29T13:27:37;24.60;32.80
20866;DHT22;10593;48.398;10.698;2023-05-29T13:30:05;24.60;32.90
20866;DHT22;10593;48.398;10.698;2023-05-29T13:32:32;24.60;33.30
20866;DHT22;10593;48.398;10.698;2023-05-29T13:34:58;24.70;33.00
20866;DHT22;10593;48.398;10.698;2023-05-29T13:37:24;24.70;32.50
20866;DHT22;10593;48.398;10.698;2023-05-29T13:39:50;24.70;31.90
20866;DHT22;10593;48.398;10.698;2023-05-29T13:42:17;24.70;32.30
20866;DHT22;10593;48.398;10.698;2023-05-29T13:44:43;24.70;31.70
20866;DHT22;10593;48.398;10.698;2023-05-29T13:47:08;24.70;32.40
20866;DHT22;10593;48.398;10.698;2023-05-29T13:49:34;24.70;32.60
20866;DHT22;10593;48.398;10.698;2023-05-29T13:52:01;24.80;32.70
20866;DHT22;10593;48.398;10.698;2023-05-29T13:54:27;24.70;32.40
20866;DHT22;10593;48.398;10.698;2023-05-29T13:56:56;24.80;32.20
20866;DHT22;10593;48.398;10.698;2023-05-29T13:59:23;24.80;31.80
20866;DHT22;10593;48.398;10.698;2023-05-29T14:01:50;24.80;31.70
20866;DHT22;10593;48.398;10.698;2023-05-29T14:04:16;24.80;31.50
20866;DHT22;10593;48.398;10.698;2023-05-29T14:06:41;24.80;30.10
20866;DHT22;10593;48.398;10.698;2023-05-29T14:09:07;24.80;30.80
20866;DHT22;10593;48.398;10.698;2023-05-29T14:11:36;24.80;30.70
20866;DHT22;10593;48.398;10.698;2023-05-29T14:14:03;24.80;31.40
20866;DHT22;10593;48.398;10.698;2023-05-29T14:16:29;24.80;31.70
20866;DHT22;10593;48.398;10.698;2023-05-29T14:18:55;24.90;31.50
20866;DHT22;10593;48.398;10.698;2023-05-29T14:21:21;24.90;30.80
20866;DHT22;10593;48.398;10.698;2023-05-29T14:23:47;24.90;30.70
20866;DHT22;10593;48.398;10.698;2023-05-29T14:26:12;24.90;30.60
20866;DHT22;10593;48.398;10.698;2023-05-29T14:28:38;24.90;30.80
20866;DHT22;10593;48.398;10.698;2023-05-29T14:31:05;24.90;31.30
20866;DHT22;10593;48.398;10.698;2023-05-29T14:33:31;24.90;31.30
20866;DHT22;10593;48.398;10.698;2023-05-29T14:35:57;24.90;31.10
20866;DHT22;10593;48.398;10.698;2023-05-29T14:38:24;24.90;30.40
20866;DHT22;10593;48.398;10.698;2023-05-29T14:40:51;25.00;30.00
20866;DHT22;10593;48.398;10.698;2023-05-29T14:43:17;24.90;30.00
20866;DHT22;10593;48.398;10.698;2023-05-29T14:45:43;24.90;30.00
20866;DHT22;10593;48.398;10.698;2023-05-29T14:48:09;25.00;30.00
20866;DHT22;10593;48.398;10.698;2023-05-29T14:50:36;25.00;30.60
20866;DHT22;10593;48.398;10.698;2023-05-29T14:53:02;25.00;30.70
20866;DHT22;10593;48.398;10.698;2023-05-29T14:55:28;25.00;30.30
20866;DHT22;10593;48.398;10.698;2023-05-29T14:57:57;25.00;30.70
20866;DHT22;10593;48.398;10.698;2023-05-29T15:00:23;25.00;30.50
20866;DHT22;10593;48.398;10.698;2023-05-29T15:02:48;25.10;30.60
20866;DHT22;10593;48.398;10.698;2023-05-29T15:05:14;25.10;30.50
20866;DHT22;10593;48.398;10.698;2023-05-29T15:07:40;25.10;30.80
20866;DHT22;10593;48.398;10.698;2023-05-29T15:10:06;25.10;30.90
20866;DHT22;10593;48.398;10.698;2023-05-29T15:12:32;25.10;30.40
20866;DHT22;10593;48.398;10.698;2023-05-29T15:14:58;25.10;30.20
20866;DHT22;10593;48.398;10.698;2023-05-29T15:17:24;25.10;30.00
20866;DHT22;10593;48.398;10.698;2023-05-29T15:19:50;25.10;29.90
20866;DHT22;10593;48.398;10.698;2023-05-29T15:22:15;25.10;30.00
20866;DHT22;10593;48.398;10.698;2023-05-29T15:24:41;25.10;30.30
20866;DHT22;10593;48.398;10.698;2023-05-29T15:27:07;25.20;30.10
20866;DHT22;10593;48.398;10.698;2023-05-29T15:29:34;25.10;30.00
20866;DHT22;10593;48.398;10.698;2023-05-29T15:32:02;25.20;30.20
20866;DHT22;10593;48.398;10.698;2023-05-29T15:34:28;25.20;29.80
20866;DHT22;10593;48.398;10.698;2023-05-29T15:36:54;25.10;29.70